Fort Calhoun, Nebraska
Current Conditions -  °F | °C
As of 1:35 AM on Saturday 29 Nov 2014 (Local Time) from KBTA Reporting Station
Clear Clear  
Wind Chill: 40°   Ceiling: Unl
Heat Index: 46°   Visibility: 10mi
Dew Point: 33°   Wind: 12mph
Humidity: 62%   Direction: 210°SSW
Pressure: 29.56"   Gusts: NA
Location:  41.46°N, 96.03°W
Report Text: KBTA 290735Z AUTO 21010KT 10SM CLR 08/01 A2956 RMK AO2 T00750007
Loading
Personal Weather Stations






























Interactive Weather Map New forecast layout! Learn more

10-Day Weather Forecast

Advertisements
Track Severe Weather on mobile